Aérodrome :
LOGIN :

S'inscrire | Disclaimer

   EN    FR    IT 

 










Légende :    VFR   VFR Marginal   IFR   IFR Intensif   IFR Très Intensif
Visi : 
Plafond : 
>= 8 km
>= 3000ft
5 à 8 km
1000 à 3000 ft
1500m à 5 km
500 à 1000 ft
800 à 1500m
200 à 500 ft
< 800m
< 200 ft
Symboles :   Orages  Brouillard  Fortes neiges  Fortes précipitations  Vent > 20 kt
SIGMETs :   Divers  Orages  Givrage  Turbulence  Onde Orograph.  Cendres Volcan.






- Altitude de l'aérodrome : 788 ft
- Code IATA : DCM


LFCK - Castres-Mazamet

DERNIER METAR :
  • 270000Z AUTO 09003KT 8000 NSC 03/02 Q1022

METARs EXPIRÉS :
  • 262330Z AUTO 13005KT CAVOK 04/04 Q1022
  • 262300Z AUTO 12006KT 5000 BR NSC 03/03 Q1022
  • 262230Z AUTO 14005KT 1100 0900 R14/1500D BCFG NSC 02/02 Q1023
  • 262200Z AUTO 15003KT 6000 FEW013 05/05 Q1023

TAF AMD TAF LFCK
Valide du 26 à 20h jusqu'au 27 à 03h UTC


262020Z 2620/2703 VRB02KT 6000 BKN013
TEMPO 2620/2703 3000 BR
PROB40
TEMPO 2621/2703 0600 FG VV///



MET'MAP, la Météo Aéronautique d'un coup d'oeil ! - Copyright ORBIFLY Décembre 2007 - Disclaimer

ORBIFLY MET'MAP TEAM :

Programmation & Développement : Alexandra Zaïnal
Sur une idée originale de : Baudouin d'Aumeries
Assistance à la programmation : Marc-Olivier Méhu
Soutien technique & logistique : Manuel Goepfert

Contact : metmap@orbifly.com




SOURCES & CREDITS :

   NOAA